sensor_id;sensor_type;location;lat;lon;timestamp;P1;durP1;ratioP1;P2;durP2;ratioP2
11039;SDS011;5573;49.592;8.662;2024-02-26T00:00:42;19.53;;;18.53;;
11039;SDS011;5573;49.592;8.662;2024-02-26T00:03:13;19.95;;;18.95;;
11039;SDS011;5573;49.592;8.662;2024-02-26T00:05:42;21.03;;;19.97;;
11039;SDS011;5573;49.592;8.662;2024-02-26T00:08:10;20.70;;;19.65;;
11039;SDS011;5573;49.592;8.662;2024-02-26T00:10:37;19.20;;;18.23;;
11039;SDS011;5573;49.592;8.662;2024-02-26T00:13:05;18.27;;;17.38;;
11039;SDS011;5573;49.592;8.662;2024-02-26T00:15:33;17.40;;;16.53;;
11039;SDS011;5573;49.592;8.662;2024-02-26T00:18:01;18.80;;;17.90;;
11039;SDS011;5573;49.592;8.662;2024-02-26T00:20:29;17.93;;;17.03;;
11039;SDS011;5573;49.592;8.662;2024-02-26T00:22:59;19.07;;;18.07;;
11039;SDS011;5573;49.592;8.662;2024-02-26T00:25:27;18.97;;;17.97;;
11039;SDS011;5573;49.592;8.662;2024-02-26T00:27:54;18.10;;;17.20;;
11039;SDS011;5573;49.592;8.662;2024-02-26T00:30:22;18.63;;;17.70;;
11039;SDS011;5573;49.592;8.662;2024-02-26T00:32:51;18.42;;;17.50;;
11039;SDS011;5573;49.592;8.662;2024-02-26T00:35:19;19.65;;;18.65;;
11039;SDS011;5573;49.592;8.662;2024-02-26T00:37:47;18.20;;;17.20;;
11039;SDS011;5573;49.592;8.662;2024-02-26T00:40:16;20.40;;;19.37;;
11039;SDS011;5573;49.592;8.662;2024-02-26T00:42:44;19.38;;;18.40;;
11039;SDS011;5573;49.592;8.662;2024-02-26T00:45:14;17.23;;;16.35;;
11039;SDS011;5573;49.592;8.662;2024-02-26T00:47:43;19.05;;;18.08;;
11039;SDS011;5573;49.592;8.662;2024-02-26T00:50:13;19.30;;;18.33;;
11039;SDS011;5573;49.592;8.662;2024-02-26T00:52:42;19.20;;;18.25;;
11039;SDS011;5573;49.592;8.662;2024-02-26T00:55:10;20.58;;;19.55;;
11039;SDS011;5573;49.592;8.662;2024-02-26T00:57:39;19.50;;;18.52;;
11039;SDS011;5573;49.592;8.662;2024-02-26T01:00:08;17.65;;;16.75;;
11039;SDS011;5573;49.592;8.662;2024-02-26T01:02:36;18.70;;;17.70;;
11039;SDS011;5573;49.592;8.662;2024-02-26T01:05:05;18.25;;;17.35;;
11039;SDS011;5573;49.592;8.662;2024-02-26T01:07:33;18.42;;;17.50;;
11039;SDS011;5573;49.592;8.662;2024-02-26T01:10:02;19.00;;;18.02;;
11039;SDS011;5573;49.592;8.662;2024-02-26T01:12:32;19.80;;;18.77;;
11039;SDS011;5573;49.592;8.662;2024-02-26T01:15:01;19.30;;;18.30;;
11039;SDS011;5573;49.592;8.662;2024-02-26T01:17:30;20.17;;;19.17;;
11039;SDS011;5573;49.592;8.662;2024-02-26T01:19:58;18.02;;;17.13;;
11039;SDS011;5573;49.592;8.662;2024-02-26T01:22:26;18.27;;;17.38;;
11039;SDS011;5573;49.592;8.662;2024-02-26T01:24:54;17.85;;;16.95;;
11039;SDS011;5573;49.592;8.662;2024-02-26T01:27:23;17.83;;;16.92;;
11039;SDS011;5573;49.592;8.662;2024-02-26T01:29:53;18.67;;;17.67;;
11039;SDS011;5573;49.592;8.662;2024-02-26T01:32:22;19.93;;;18.93;;
11039;SDS011;5573;49.592;8.662;2024-02-26T01:34:50;19.25;;;18.30;;
11039;SDS011;5573;49.592;8.662;2024-02-26T01:37:18;18.55;;;17.63;;
11039;SDS011;5573;49.592;8.662;2024-02-26T01:39:45;17.23;;;16.38;;
11039;SDS011;5573;49.592;8.662;2024-02-26T01:42:14;21.13;;;20.03;;
11039;SDS011;5573;49.592;8.662;2024-02-26T01:44:41;20.50;;;19.48;;
11039;SDS011;5573;49.592;8.662;2024-02-26T01:47:10;18.70;;;17.80;;
11039;SDS011;5573;49.592;8.662;2024-02-26T01:49:41;19.70;;;18.70;;
11039;SDS011;5573;49.592;8.662;2024-02-26T01:52:09;20.85;;;19.80;;
11039;SDS011;5573;49.592;8.662;2024-02-26T01:54:38;23.38;;;22.17;;
11039;SDS011;5573;49.592;8.662;2024-02-26T01:57:07;22.70;;;21.55;;
11039;SDS011;5573;49.592;8.662;2024-02-26T01:59:36;24.00;;;22.80;;
11039;SDS011;5573;49.592;8.662;2024-02-26T02:02:05;23.10;;;21.95;;
11039;SDS011;5573;49.592;8.662;2024-02-26T02:04:35;28.23;;;26.75;;
11039;SDS011;5573;49.592;8.662;2024-02-26T02:07:05;29.63;;;28.13;;
11039;SDS011;5573;49.592;8.662;2024-02-26T02:09:33;28.20;;;26.75;;
11039;SDS011;5573;49.592;8.662;2024-02-26T02:12:01;32.15;;;30.52;;
11039;SDS011;5573;49.592;8.662;2024-02-26T02:14:30;34.40;;;32.67;;
11039;SDS011;5573;49.592;8.662;2024-02-26T02:16:58;33.13;;;31.42;;
11039;SDS011;5573;49.592;8.662;2024-02-26T02:19:26;34.78;;;32.97;;
11039;SDS011;5573;49.592;8.662;2024-02-26T02:21:55;35.10;;;33.25;;
11039;SDS011;5573;49.592;8.662;2024-02-26T02:24:23;32.25;;;30.60;;
11039;SDS011;5573;49.592;8.662;2024-02-26T02:26:51;32.83;;;31.15;;
11039;SDS011;5573;49.592;8.662;2024-02-26T02:29:18;33.33;;;31.63;;
11039;SDS011;5573;49.592;8.662;2024-02-26T02:31:46;31.10;;;29.52;;
11039;SDS011;5573;49.592;8.662;2024-02-26T02:34:14;29.85;;;28.35;;
11039;SDS011;5573;49.592;8.662;2024-02-26T02:36:49;28.90;;;27.45;;
11039;SDS011;5573;49.592;8.662;2024-02-26T02:39:20;23.90;;;22.70;;
11039;SDS011;5573;49.592;8.662;2024-02-26T02:41:48;21.88;;;20.77;;
11039;SDS011;5573;49.592;8.662;2024-02-26T02:44:16;20.35;;;19.25;;
11039;SDS011;5573;49.592;8.662;2024-02-26T02:46:44;19.55;;;18.55;;
11039;SDS011;5573;49.592;8.662;2024-02-26T02:49:12;18.40;;;17.50;;
11039;SDS011;5573;49.592;8.662;2024-02-26T02:51:41;19.38;;;18.38;;
11039;SDS011;5573;49.592;8.662;2024-02-26T02:54:08;18.17;;;17.27;;
11039;SDS011;5573;49.592;8.662;2024-02-26T02:56:37;19.48;;;18.48;;
11039;SDS011;5573;49.592;8.662;2024-02-26T02:59:05;20.83;;;19.77;;
11039;SDS011;5573;49.592;8.662;2024-02-26T03:01:33;22.10;;;20.95;;
11039;SDS011;5573;49.592;8.662;2024-02-26T03:06:29;24.88;;;23.60;;
11039;SDS011;5573;49.592;8.662;2024-02-26T03:08:58;29.67;;;28.13;;
11039;SDS011;5573;49.592;8.662;2024-02-26T03:11:29;33.72;;;32.03;;
11039;SDS011;5573;49.592;8.662;2024-02-26T03:13:59;35.83;;;34.00;;
11039;SDS011;5573;49.592;8.662;2024-02-26T03:16:26;35.67;;;33.83;;
11039;SDS011;5573;49.592;8.662;2024-02-26T03:18:54;38.20;;;36.27;;
11039;SDS011;5573;49.592;8.662;2024-02-26T03:21:22;43.20;;;40.93;;
11039;SDS011;5573;49.592;8.662;2024-02-26T03:23:52;42.90;;;40.57;;
11039;SDS011;5573;49.592;8.662;2024-02-26T03:26:20;42.33;;;40.13;;
11039;SDS011;5573;49.592;8.662;2024-02-26T03:28:47;44.93;;;42.63;;
11039;SDS011;5573;49.592;8.662;2024-02-26T03:31:16;50.43;;;47.83;;
11039;SDS011;5573;49.592;8.662;2024-02-26T03:33:44;55.00;;;52.17;;
11039;SDS011;5573;49.592;8.662;2024-02-26T03:36:12;61.60;;;58.43;;
11039;SDS011;5573;49.592;8.662;2024-02-26T03:38:40;63.53;;;60.23;;
11039;SDS011;5573;49.592;8.662;2024-02-26T03:41:08;65.07;;;61.67;;
11039;SDS011;5573;49.592;8.662;2024-02-26T03:43:36;62.93;;;59.63;;
11039;SDS011;5573;49.592;8.662;2024-02-26T03:46:03;55.40;;;52.50;;
11039;SDS011;5573;49.592;8.662;2024-02-26T03:48:35;45.03;;;42.53;;
11039;SDS011;5573;49.592;8.662;2024-02-26T03:51:04;49.87;;;47.20;;
11039;SDS011;5573;49.592;8.662;2024-02-26T03:53:31;48.60;;;46.00;;
11039;SDS011;5573;49.592;8.662;2024-02-26T03:56:02;44.83;;;42.43;;
11039;SDS011;5573;49.592;8.662;2024-02-26T03:58:30;42.33;;;40.10;;
11039;SDS011;5573;49.592;8.662;2024-02-26T04:00:58;40.70;;;38.53;;
11039;SDS011;5573;49.592;8.662;2024-02-26T04:03:26;40.23;;;38.07;;
11039;SDS011;5573;49.592;8.662;2024-02-26T04:05:55;38.93;;;36.83;;
11039;SDS011;5573;49.592;8.662;2024-02-26T04:08:23;35.43;;;33.57;;
11039;SDS011;5573;49.592;8.662;2024-02-26T04:10:51;36.17;;;34.27;;
11039;SDS011;5573;49.592;8.662;2024-02-26T04:13:19;36.10;;;34.17;;
11039;SDS011;5573;49.592;8.662;2024-02-26T04:15:47;37.13;;;35.13;;
11039;SDS011;5573;49.592;8.662;2024-02-26T04:18:15;37.10;;;35.10;;
11039;SDS011;5573;49.592;8.662;2024-02-26T04:20:43;37.57;;;35.57;;
11039;SDS011;5573;49.592;8.662;2024-02-26T04:23:12;36.60;;;34.70;;
11039;SDS011;5573;49.592;8.662;2024-02-26T04:25:40;37.50;;;35.50;;
11039;SDS011;5573;49.592;8.662;2024-02-26T04:28:08;38.63;;;36.60;;
11039;SDS011;5573;49.592;8.662;2024-02-26T04:30:36;39.23;;;37.13;;
11039;SDS011;5573;49.592;8.662;2024-02-26T04:33:04;36.87;;;34.93;;
11039;SDS011;5573;49.592;8.662;2024-02-26T04:35:32;39.67;;;37.57;;
11039;SDS011;5573;49.592;8.662;2024-02-26T04:38:01;35.37;;;33.50;;
11039;SDS011;5573;49.592;8.662;2024-02-26T04:40:30;38.10;;;36.10;;
11039;SDS011;5573;49.592;8.662;2024-02-26T04:42:58;40.30;;;38.20;;
11039;SDS011;5573;49.592;8.662;2024-02-26T04:45:25;37.27;;;35.33;;
11039;SDS011;5573;49.592;8.662;2024-02-26T04:47:54;37.87;;;35.90;;
11039;SDS011;5573;49.592;8.662;2024-02-26T04:50:21;38.27;;;36.27;;
11039;SDS011;5573;49.592;8.662;2024-02-26T04:52:48;36.47;;;34.57;;
11039;SDS011;5573;49.592;8.662;2024-02-26T04:55:16;35.57;;;33.73;;
11039;SDS011;5573;49.592;8.662;2024-02-26T04:57:45;35.37;;;33.53;;
11039;SDS011;5573;49.592;8.662;2024-02-26T05:00:13;38.83;;;36.83;;
11039;SDS011;5573;49.592;8.662;2024-02-26T05:02:42;37.07;;;35.17;;
11039;SDS011;5573;49.592;8.662;2024-02-26T05:05:09;37.23;;;35.30;;
11039;SDS011;5573;49.592;8.662;2024-02-26T05:07:39;38.77;;;36.77;;
11039;SDS011;5573;49.592;8.662;2024-02-26T05:10:08;37.00;;;35.07;;
11039;SDS011;5573;49.592;8.662;2024-02-26T05:12:36;37.10;;;35.20;;
11039;SDS011;5573;49.592;8.662;2024-02-26T05:15:06;38.57;;;36.57;;
11039;SDS011;5573;49.592;8.662;2024-02-26T05:17:35;39.67;;;37.57;;
11039;SDS011;5573;49.592;8.662;2024-02-26T05:20:03;38.97;;;36.87;;
11039;SDS011;5573;49.592;8.662;2024-02-26T05:22:34;40.00;;;37.90;;
11039;SDS011;5573;49.592;8.662;2024-02-26T05:25:02;43.50;;;41.13;;
11039;SDS011;5573;49.592;8.662;2024-02-26T05:27:30;45.17;;;42.67;;
11039;SDS011;5573;49.592;8.662;2024-02-26T05:29:58;42.90;;;40.60;;
11039;SDS011;5573;49.592;8.662;2024-02-26T05:32:27;43.63;;;41.30;;
11039;SDS011;5573;49.592;8.662;2024-02-26T05:34:55;41.33;;;39.10;;
11039;SDS011;5573;49.592;8.662;2024-02-26T05:37:23;42.93;;;40.60;;
11039;SDS011;5573;49.592;8.662;2024-02-26T05:39:51;43.70;;;41.33;;
11039;SDS011;5573;49.592;8.662;2024-02-26T05:42:20;42.83;;;40.53;;
11039;SDS011;5573;49.592;8.662;2024-02-26T05:44:48;42.00;;;39.77;;
11039;SDS011;5573;49.592;8.662;2024-02-26T05:47:16;42.60;;;40.30;;
11039;SDS011;5573;49.592;8.662;2024-02-26T05:49:45;44.50;;;42.10;;
11039;SDS011;5573;49.592;8.662;2024-02-26T05:52:13;41.63;;;39.40;;
11039;SDS011;5573;49.592;8.662;2024-02-26T05:54:41;40.80;;;38.60;;
11039;SDS011;5573;49.592;8.662;2024-02-26T05:57:08;42.43;;;40.13;;
11039;SDS011;5573;49.592;8.662;2024-02-26T05:59:37;42.23;;;39.93;;
11039;SDS011;5573;49.592;8.662;2024-02-26T06:02:05;42.97;;;40.67;;
11039;SDS011;5573;49.592;8.662;2024-02-26T06:04:33;41.97;;;39.70;;
11039;SDS011;5573;49.592;8.662;2024-02-26T06:07:02;40.40;;;38.23;;
11039;SDS011;5573;49.592;8.662;2024-02-26T06:09:30;43.67;;;41.33;;
11039;SDS011;5573;49.592;8.662;2024-02-26T06:11:57;40.50;;;38.33;;
11039;SDS011;5573;49.592;8.662;2024-02-26T06:14:25;41.70;;;39.40;;
11039;SDS011;5573;49.592;8.662;2024-02-26T06:16:53;42.97;;;40.60;;
11039;SDS011;5573;49.592;8.662;2024-02-26T06:19:21;44.13;;;41.73;;
11039;SDS011;5573;49.592;8.662;2024-02-26T06:21:49;42.60;;;40.27;;
11039;SDS011;5573;49.592;8.662;2024-02-26T06:24:18;42.37;;;40.07;;
11039;SDS011;5573;49.592;8.662;2024-02-26T06:26:47;42.77;;;40.47;;
11039;SDS011;5573;49.592;8.662;2024-02-26T06:29:15;45.37;;;42.87;;
11039;SDS011;5573;49.592;8.662;2024-02-26T06:31:43;44.17;;;41.73;;
11039;SDS011;5573;49.592;8.662;2024-02-26T06:34:10;44.33;;;41.90;;
11039;SDS011;5573;49.592;8.662;2024-02-26T06:36:39;46.47;;;43.77;;
11039;SDS011;5573;49.592;8.662;2024-02-26T06:39:07;45.50;;;43.00;;
11039;SDS011;5573;49.592;8.662;2024-02-26T06:41:36;43.87;;;41.47;;
11039;SDS011;5573;49.592;8.662;2024-02-26T06:44:05;44.00;;;41.60;;
11039;SDS011;5573;49.592;8.662;2024-02-26T06:46:33;43.50;;;41.10;;
11039;SDS011;5573;49.592;8.662;2024-02-26T06:49:01;46.27;;;43.67;;
11039;SDS011;5573;49.592;8.662;2024-02-26T06:51:29;47.00;;;44.40;;
11039;SDS011;5573;49.592;8.662;2024-02-26T06:53:57;46.30;;;43.73;;
11039;SDS011;5573;49.592;8.662;2024-02-26T06:56:25;48.90;;;46.20;;
11039;SDS011;5573;49.592;8.662;2024-02-26T06:58:54;45.43;;;42.93;;
11039;SDS011;5573;49.592;8.662;2024-02-26T07:01:22;46.03;;;43.47;;
11039;SDS011;5573;49.592;8.662;2024-02-26T07:03:50;46.97;;;44.37;;
11039;SDS011;5573;49.592;8.662;2024-02-26T07:06:18;48.03;;;45.40;;
11039;SDS011;5573;49.592;8.662;2024-02-26T07:08:46;46.57;;;44.03;;
11039;SDS011;5573;49.592;8.662;2024-02-26T07:11:14;44.60;;;42.10;;
11039;SDS011;5573;49.592;8.662;2024-02-26T07:13:42;45.13;;;42.70;;
11039;SDS011;5573;49.592;8.662;2024-02-26T07:16:11;49.20;;;46.50;;
11039;SDS011;5573;49.592;8.662;2024-02-26T07:18:39;49.83;;;47.07;;
11039;SDS011;5573;49.592;8.662;2024-02-26T07:21:07;50.70;;;47.90;;
11039;SDS011;5573;49.592;8.662;2024-02-26T07:23:35;49.60;;;46.87;;
11039;SDS011;5573;49.592;8.662;2024-02-26T07:26:03;45.83;;;43.30;;
11039;SDS011;5573;49.592;8.662;2024-02-26T07:28:31;49.47;;;46.77;;
11039;SDS011;5573;49.592;8.662;2024-02-26T07:30:59;53.13;;;50.27;;
11039;SDS011;5573;49.592;8.662;2024-02-26T07:33:28;48.33;;;45.73;;
11039;SDS011;5573;49.592;8.662;2024-02-26T07:35:56;52.40;;;49.57;;
11039;SDS011;5573;49.592;8.662;2024-02-26T07:38:23;50.67;;;47.87;;
11039;SDS011;5573;49.592;8.662;2024-02-26T07:41:07;49.90;;;47.00;;
11039;SDS011;5573;49.592;8.662;2024-02-26T07:43:35;47.23;;;44.70;;
11039;SDS011;5573;49.592;8.662;2024-02-26T07:46:03;50.00;;;47.23;;
11039;SDS011;5573;49.592;8.662;2024-02-26T07:48:32;48.33;;;45.73;;
11039;SDS011;5573;49.592;8.662;2024-02-26T07:51:01;47.10;;;44.57;;
11039;SDS011;5573;49.592;8.662;2024-02-26T07:53:29;46.17;;;43.70;;
11039;SDS011;5573;49.592;8.662;2024-02-26T07:55:57;48.57;;;45.97;;
11039;SDS011;5573;49.592;8.662;2024-02-26T07:58:25;46.13;;;43.67;;
11039;SDS011;5573;49.592;8.662;2024-02-26T08:00:53;47.30;;;44.77;;
11039;SDS011;5573;49.592;8.662;2024-02-26T08:03:21;44.27;;;41.90;;
11039;SDS011;5573;49.592;8.662;2024-02-26T08:05:50;46.47;;;43.97;;
11039;SDS011;5573;49.592;8.662;2024-02-26T08:08:18;46.43;;;43.93;;
11039;SDS011;5573;49.592;8.662;2024-02-26T08:10:46;46.63;;;44.13;;
11039;SDS011;5573;49.592;8.662;2024-02-26T08:13:13;42.07;;;39.83;;
11039;SDS011;5573;49.592;8.662;2024-02-26T08:15:41;45.50;;;43.10;;
11039;SDS011;5573;49.592;8.662;2024-02-26T08:18:09;44.53;;;42.20;;
11039;SDS011;5573;49.592;8.662;2024-02-26T08:20:37;44.00;;;41.63;;
11039;SDS011;5573;49.592;8.662;2024-02-26T08:23:06;45.97;;;43.53;;
11039;SDS011;5573;49.592;8.662;2024-02-26T08:25:34;47.73;;;45.17;;
11039;SDS011;5573;49.592;8.662;2024-02-26T08:28:01;47.00;;;44.50;;
11039;SDS011;5573;49.592;8.662;2024-02-26T08:30:29;47.67;;;45.13;;
11039;SDS011;5573;49.592;8.662;2024-02-26T08:32:57;45.37;;;43.00;;
11039;SDS011;5573;49.592;8.662;2024-02-26T08:35:25;48.60;;;46.00;;
11039;SDS011;5573;49.592;8.662;2024-02-26T08:37:53;49.40;;;46.80;;
11039;SDS011;5573;49.592;8.662;2024-02-26T08:40:22;49.40;;;46.80;;
11039;SDS011;5573;49.592;8.662;2024-02-26T08:42:50;47.70;;;45.20;;
11039;SDS011;5573;49.592;8.662;2024-02-26T08:45:18;50.13;;;47.50;;
11039;SDS011;5573;49.592;8.662;2024-02-26T08:47:46;48.63;;;46.10;;
11039;SDS011;5573;49.592;8.662;2024-02-26T08:50:14;48.30;;;45.77;;
11039;SDS011;5573;49.592;8.662;2024-02-26T08:52:42;51.17;;;48.47;;
11039;SDS011;5573;49.592;8.662;2024-02-26T08:55:10;50.20;;;47.57;;
11039;SDS011;5573;49.592;8.662;2024-02-26T08:57:41;53.00;;;50.10;;
11039;SDS011;5573;49.592;8.662;2024-02-26T09:00:09;54.57;;;51.70;;
11039;SDS011;5573;49.592;8.662;2024-02-26T09:02:38;54.20;;;51.33;;
11039;SDS011;5573;49.592;8.662;2024-02-26T09:05:06;53.50;;;50.67;;
11039;SDS011;5573;49.592;8.662;2024-02-26T09:07:34;58.17;;;55.10;;
11039;SDS011;5573;49.592;8.662;2024-02-26T09:10:03;59.22;;;56.10;;
11039;SDS011;5573;49.592;8.662;2024-02-26T09:12:32;60.93;;;57.70;;
11039;SDS011;5573;49.592;8.662;2024-02-26T09:15:01;59.63;;;56.50;;
11039;SDS011;5573;49.592;8.662;2024-02-26T09:17:29;60.20;;;57.03;;
11039;SDS011;5573;49.592;8.662;2024-02-26T09:19:56;64.60;;;61.20;;
11039;SDS011;5573;49.592;8.662;2024-02-26T09:22:24;63.60;;;60.30;;
11039;SDS011;5573;49.592;8.662;2024-02-26T09:24:52;64.53;;;61.13;;
11039;SDS011;5573;49.592;8.662;2024-02-26T09:27:20;60.50;;;57.33;;
11039;SDS011;5573;49.592;8.662;2024-02-26T09:29:47;65.65;;;62.20;;
11039;SDS011;5573;49.592;8.662;2024-02-26T09:32:16;63.45;;;60.17;;
11039;SDS011;5573;49.592;8.662;2024-02-26T09:34:44;65.10;;;61.70;;
11039;SDS011;5573;49.592;8.662;2024-02-26T09:37:12;63.05;;;59.75;;
11039;SDS011;5573;49.592;8.662;2024-02-26T09:39:47;64.40;;;61.00;;
11039;SDS011;5573;49.592;8.662;2024-02-26T09:42:15;65.47;;;62.08;;
11039;SDS011;5573;49.592;8.662;2024-02-26T09:44:46;58.50;;;55.47;;
11039;SDS011;5573;49.592;8.662;2024-02-26T09:47:20;61.45;;;58.28;;
11039;SDS011;5573;49.592;8.662;2024-02-26T09:49:50;55.90;;;53.00;;
11039;SDS011;5573;49.592;8.662;2024-02-26T09:52:20;59.28;;;56.17;;
11039;SDS011;5573;49.592;8.662;2024-02-26T09:54:49;52.42;;;49.70;;
11039;SDS011;5573;49.592;8.662;2024-02-26T09:57:17;54.28;;;51.47;;
11039;SDS011;5573;49.592;8.662;2024-02-26T09:59:44;54.13;;;51.33;;
11039;SDS011;5573;49.592;8.662;2024-02-26T10:02:15;54.65;;;51.78;;
11039;SDS011;5573;49.592;8.662;2024-02-26T10:04:48;49.78;;;47.17;;
11039;SDS011;5573;49.592;8.662;2024-02-26T10:07:18;51.85;;;49.15;;
11039;SDS011;5573;49.592;8.662;2024-02-26T10:09:46;50.30;;;47.70;;
11039;SDS011;5573;49.592;8.662;2024-02-26T10:12:15;49.58;;;47.05;;
11039;SDS011;5573;49.592;8.662;2024-02-26T10:14:43;45.58;;;43.20;;
11039;SDS011;5573;49.592;8.662;2024-02-26T10:17:12;42.83;;;40.63;;
11039;SDS011;5573;49.592;8.662;2024-02-26T10:19:39;41.60;;;39.50;;
11039;SDS011;5573;49.592;8.662;2024-02-26T10:22:09;34.78;;;33.03;;
11039;SDS011;5573;49.592;8.662;2024-02-26T10:24:36;34.80;;;33.03;;
11039;SDS011;5573;49.592;8.662;2024-02-26T10:27:04;35.55;;;33.72;;
11039;SDS011;5573;49.592;8.662;2024-02-26T10:29:32;35.78;;;33.97;;
11039;SDS011;5573;49.592;8.662;2024-02-26T10:32:00;34.47;;;32.70;;
11039;SDS011;5573;49.592;8.662;2024-02-26T10:34:28;35.20;;;33.42;;
11039;SDS011;5573;49.592;8.662;2024-02-26T10:36:56;34.80;;;33.03;;
11039;SDS011;5573;49.592;8.662;2024-02-26T10:39:25;38.15;;;36.15;;
11039;SDS011;5573;49.592;8.662;2024-02-26T10:41:53;36.95;;;35.05;;
11039;SDS011;5573;49.592;8.662;2024-02-26T10:44:21;38.15;;;36.20;;
11039;SDS011;5573;49.592;8.662;2024-02-26T10:46:49;36.42;;;34.50;;
11039;SDS011;5573;49.592;8.662;2024-02-26T10:49:17;37.72;;;35.78;;
11039;SDS011;5573;49.592;8.662;2024-02-26T10:51:49;37.13;;;35.22;;
11039;SDS011;5573;49.592;8.662;2024-02-26T10:54:22;41.00;;;38.88;;
11039;SDS011;5573;49.592;8.662;2024-02-26T10:56:54;42.58;;;40.40;;
11039;SDS011;5573;49.592;8.662;2024-02-26T10:59:24;39.20;;;37.17;;
11039;SDS011;5573;49.592;8.662;2024-02-26T11:01:51;40.70;;;38.58;;
11039;SDS011;5573;49.592;8.662;2024-02-26T11:04:21;42.65;;;40.45;;
11039;SDS011;5573;49.592;8.662;2024-02-26T11:06:51;49.33;;;46.78;;
11039;SDS011;5573;49.592;8.662;2024-02-26T11:09:24;48.67;;;46.17;;
11039;SDS011;5573;49.592;8.662;2024-02-26T11:11:55;52.08;;;49.40;;
11039;SDS011;5573;49.592;8.662;2024-02-26T11:14:25;61.30;;;58.13;;
11039;SDS011;5573;49.592;8.662;2024-02-26T11:16:54;65.45;;;62.05;;
11039;SDS011;5573;49.592;8.662;2024-02-26T11:19:23;66.32;;;62.95;;
11039;SDS011;5573;49.592;8.662;2024-02-26T11:21:52;74.13;;;70.28;;
11039;SDS011;5573;49.592;8.662;2024-02-26T11:24:20;67.03;;;63.53;;
11039;SDS011;5573;49.592;8.662;2024-02-26T11:26:48;61.88;;;58.67;;
11039;SDS011;5573;49.592;8.662;2024-02-26T11:29:28;55.95;;;53.05;;
11039;SDS011;5573;49.592;8.662;2024-02-26T11:32:00;61.25;;;58.10;;
11039;SDS011;5573;49.592;8.662;2024-02-26T11:34:28;57.40;;;54.40;;
11039;SDS011;5573;49.592;8.662;2024-02-26T11:36:56;53.95;;;51.17;;
11039;SDS011;5573;49.592;8.662;2024-02-26T11:39:25;57.97;;;55.00;;
11039;SDS011;5573;49.592;8.662;2024-02-26T11:41:53;60.85;;;57.67;;
11039;SDS011;5573;49.592;8.662;2024-02-26T11:44:29;56.92;;;53.97;;
11039;SDS011;5573;49.592;8.662;2024-02-26T11:46:57;60.55;;;57.42;;
11039;SDS011;5573;49.592;8.662;2024-02-26T11:49:30;62.10;;;58.90;;
11039;SDS011;5573;49.592;8.662;2024-02-26T11:51:59;57.83;;;54.83;;
11039;SDS011;5573;49.592;8.662;2024-02-26T11:54:37;63.83;;;60.50;;
11039;SDS011;5573;49.592;8.662;2024-02-26T11:57:22;65.13;;;61.78;;
11039;SDS011;5573;49.592;8.662;2024-02-26T11:59:52;62.03;;;58.80;;
11039;SDS011;5573;49.592;8.662;2024-02-26T12:05:11;59.47;;;56.40;;
11039;SDS011;5573;49.592;8.662;2024-02-26T12:07:40;57.95;;;54.95;;
11039;SDS011;5573;49.592;8.662;2024-02-26T12:10:21;50.15;;;47.50;;
11039;SDS011;5573;49.592;8.662;2024-02-26T12:12:53;53.85;;;51.00;;
11039;SDS011;5573;49.592;8.662;2024-02-26T12:15:24;52.03;;;49.30;;
11039;SDS011;5573;49.592;8.662;2024-02-26T12:17:52;52.88;;;50.13;;
11039;SDS011;5573;49.592;8.662;2024-02-26T12:20:20;52.65;;;49.90;;
11039;SDS011;5573;49.592;8.662;2024-02-26T12:22:49;54.45;;;51.55;;
11039;SDS011;5573;49.592;8.662;2024-02-26T12:25:19;55.50;;;52.58;;
11039;SDS011;5573;49.592;8.662;2024-02-26T12:27:49;50.72;;;48.03;;
11039;SDS011;5573;49.592;8.662;2024-02-26T12:30:17;52.80;;;50.03;;
11039;SDS011;5573;49.592;8.662;2024-02-26T12:32:46;51.45;;;48.75;;
11039;SDS011;5573;49.592;8.662;2024-02-26T12:35:15;52.55;;;49.80;;
11039;SDS011;5573;49.592;8.662;2024-02-26T12:37:44;55.78;;;52.83;;
11039;SDS011;5573;49.592;8.662;2024-02-26T12:40:13;59.28;;;56.13;;
11039;SDS011;5573;49.592;8.662;2024-02-26T12:42:41;60.65;;;57.45;;
11039;SDS011;5573;49.592;8.662;2024-02-26T12:45:10;64.95;;;61.40;;
11039;SDS011;5573;49.592;8.662;2024-02-26T12:47:39;61.38;;;58.10;;
11039;SDS011;5573;49.592;8.662;2024-02-26T12:50:10;67.05;;;63.50;;
11039;SDS011;5573;49.592;8.662;2024-02-26T12:52:40;69.88;;;66.15;;
11039;SDS011;5573;49.592;8.662;2024-02-26T12:55:11;71.15;;;67.32;;
11039;SDS011;5573;49.592;8.662;2024-02-26T12:57:41;69.22;;;65.63;;
11039;SDS011;5573;49.592;8.662;2024-02-26T13:00:11;68.90;;;65.30;;
11039;SDS011;5573;49.592;8.662;2024-02-26T13:02:41;62.65;;;59.38;;
11039;SDS011;5573;49.592;8.662;2024-02-26T13:05:13;68.82;;;65.13;;
11039;SDS011;5573;49.592;8.662;2024-02-26T13:07:42;68.20;;;64.50;;
11039;SDS011;5573;49.592;8.662;2024-02-26T13:10:10;62.40;;;59.05;;
11039;SDS011;5573;49.592;8.662;2024-02-26T13:12:42;64.45;;;60.95;;
11039;SDS011;5573;49.592;8.662;2024-02-26T13:15:14;65.03;;;61.55;;
11039;SDS011;5573;49.592;8.662;2024-02-26T13:17:43;62.05;;;58.80;;
11039;SDS011;5573;49.592;8.662;2024-02-26T13:20:10;61.90;;;58.60;;
11039;SDS011;5573;49.592;8.662;2024-02-26T13:22:41;57.88;;;54.80;;
11039;SDS011;5573;49.592;8.662;2024-02-26T13:25:09;59.10;;;55.92;;
11039;SDS011;5573;49.592;8.662;2024-02-26T13:27:37;63.03;;;59.63;;
11039;SDS011;5573;49.592;8.662;2024-02-26T13:30:08;57.78;;;54.67;;
11039;SDS011;5573;49.592;8.662;2024-02-26T13:32:38;61.40;;;58.10;;
11039;SDS011;5573;49.592;8.662;2024-02-26T13:35:08;53.90;;;51.03;;
11039;SDS011;5573;49.592;8.662;2024-02-26T13:37:38;56.67;;;53.58;;
11039;SDS011;5573;49.592;8.662;2024-02-26T13:40:07;56.78;;;53.70;;
11039;SDS011;5573;49.592;8.662;2024-02-26T13:42:36;58.05;;;55.03;;
11039;SDS011;5573;49.592;8.662;2024-02-26T13:45:05;61.25;;;57.97;;
11039;SDS011;5573;49.592;8.662;2024-02-26T13:47:34;65.30;;;61.83;;
11039;SDS011;5573;49.592;8.662;2024-02-26T13:50:02;69.60;;;65.88;;
11039;SDS011;5573;49.592;8.662;2024-02-26T13:52:31;72.65;;;68.70;;
11039;SDS011;5573;49.592;8.662;2024-02-26T13:55:02;78.57;;;74.38;;
11039;SDS011;5573;49.592;8.662;2024-02-26T13:57:30;74.43;;;70.43;;
11039;SDS011;5573;49.592;8.662;2024-02-26T13:59:58;66.50;;;62.88;;
11039;SDS011;5573;49.592;8.662;2024-02-26T14:02:26;69.00;;;65.30;;
11039;SDS011;5573;49.592;8.662;2024-02-26T14:04:54;73.65;;;69.70;;
11039;SDS011;5573;49.592;8.662;2024-02-26T14:07:22;63.88;;;60.42;;
11039;SDS011;5573;49.592;8.662;2024-02-26T14:09:50;66.47;;;62.88;;
11039;SDS011;5573;49.592;8.662;2024-02-26T14:12:19;62.22;;;58.83;;
11039;SDS011;5573;49.592;8.662;2024-02-26T14:14:50;57.50;;;54.40;;
11039;SDS011;5573;49.592;8.662;2024-02-26T14:17:19;56.15;;;53.13;;
11039;SDS011;5573;49.592;8.662;2024-02-26T14:19:47;52.50;;;49.70;;
11039;SDS011;5573;49.592;8.662;2024-02-26T14:22:16;49.80;;;47.13;;
11039;SDS011;5573;49.592;8.662;2024-02-26T14:24:43;47.83;;;45.28;;
11039;SDS011;5573;49.592;8.662;2024-02-26T14:27:12;53.15;;;50.35;;
11039;SDS011;5573;49.592;8.662;2024-02-26T14:29:43;54.25;;;51.35;;
11039;SDS011;5573;49.592;8.662;2024-02-26T14:32:11;48.65;;;46.05;;
11039;SDS011;5573;49.592;8.662;2024-02-26T14:34:39;50.20;;;47.50;;
11039;SDS011;5573;49.592;8.662;2024-02-26T14:37:07;52.65;;;49.78;;
11039;SDS011;5573;49.592;8.662;2024-02-26T14:39:37;56.15;;;53.17;;
11039;SDS011;5573;49.592;8.662;2024-02-26T14:42:05;61.95;;;58.55;;
11039;SDS011;5573;49.592;8.662;2024-02-26T14:44:33;54.15;;;51.20;;
11039;SDS011;5573;49.592;8.662;2024-02-26T14:47:02;53.58;;;50.67;;